Time;durP1;ratioP1;P1;durP2;ratioP2;P2;SDS_P1;SDS_P2;PMS_P1;PMS_P2;Temp;Humidity;BMP_temperature;BMP_pressure;BME280_temperature;BME280_humidity;BME280_pressure;Samples;Min_cycle;Max_cycle;Signal;HPM_P1;HPM_P2
2021/08/15 00:00:24;;;;;;;13.90;7.10;;;16.60;99.90;;;;;;5120780;28;20414;-69
2021/08/15 00:02:53;;;;;;;11.03;6.83;;;16.60;99.90;;;;;;5123292;27;20405;-69
2021/08/15 00:05:21;;;;;;;14.50;7.00;;;16.60;99.90;;;;;;5114687;27;20180;-69
2021/08/15 00:07:52;;;;;;;9.97;6.87;;;16.60;99.90;;;;;;5119168;28;20183;-69
2021/08/15 00:10:21;;;;;;;9.70;6.97;;;16.50;99.90;;;;;;5118390;28;20455;-68
2021/08/15 00:12:50;;;;;;;8.73;7.23;;;16.50;99.90;;;;;;5123638;28;20211;-69
2021/08/15 00:15:19;;;;;;;11.73;7.13;;;16.50;99.90;;;;;;5121565;28;20437;-68
2021/08/15 00:17:47;;;;;;;12.37;7.30;;;16.40;99.90;;;;;;5120494;28;20179;-69
2021/08/15 00:20:16;;;;;;;9.03;6.87;;;16.40;99.90;;;;;;5100735;28;20223;-69
2021/08/15 00:22:45;;;;;;;11.63;6.70;;;16.30;99.90;;;;;;5099575;28;20186;-69
2021/08/15 00:25:16;;;;;;;9.53;6.40;;;16.30;99.90;;;;;;5100321;28;20172;-68
2021/08/15 00:27:45;;;;;;;10.23;6.67;;;16.30;99.90;;;;;;5103124;28;20187;-69
2021/08/15 00:30:15;;;;;;;12.57;7.27;;;16.30;99.90;;;;;;5099528;28;20265;-69
2021/08/15 00:32:44;;;;;;;11.57;7.40;;;16.30;99.90;;;;;;5098729;28;20181;-69
2021/08/15 00:35:13;;;;;;;12.37;7.87;;;16.30;99.90;;;;;;5099319;28;20343;-69
2021/08/15 00:37:41;;;;;;;13.43;7.40;;;16.30;99.90;;;;;;5101549;28;20180;-69
2021/08/15 00:40:11;;;;;;;11.67;7.70;;;16.20;99.90;;;;;;5108721;28;20183;-68
2021/08/15 00:42:41;;;;;;;9.20;6.80;;;16.20;99.90;;;;;;5101225;28;20191;-69
2021/08/15 00:45:10;;;;;;;13.30;6.80;;;16.20;99.90;;;;;;5102023;28;20244;-69
2021/08/15 00:47:38;;;;;;;9.90;7.03;;;16.30;99.90;;;;;;5097160;28;20242;-69
2021/08/15 00:50:07;;;;;;;13.90;7.43;;;16.30;99.90;;;;;;5103610;28;20362;-69
2021/08/15 00:52:35;;;;;;;12.13;6.80;;;16.20;99.90;;;;;;5101438;28;20179;-69
2021/08/15 00:55:07;;;;;;;9.77;6.43;;;16.30;99.90;;;;;;5102291;28;20300;-68
2021/08/15 00:57:36;;;;;;;11.10;6.57;;;16.20;99.90;;;;;;5101296;28;20218;-68
2021/08/15 01:00:09;;;;;;;12.23;6.67;;;16.20;99.90;;;;;;5104532;28;20206;-69
2021/08/15 01:02:38;;;;;;;12.63;6.50;;;16.20;99.90;;;;;;5097125;28;20318;-69
2021/08/15 01:05:08;;;;;;;9.63;6.60;;;16.20;99.90;;;;;;5103382;28;20184;-68
2021/08/15 01:07:37;;;;;;;8.90;6.43;;;16.10;99.90;;;;;;5099713;28;20203;-69
2021/08/15 01:10:06;;;;;;;13.13;6.97;;;16.10;99.90;;;;;;5106518;27;20175;-69
2021/08/15 01:12:34;;;;;;;11.67;6.93;;;16.10;99.90;;;;;;5104330;28;20221;-69
2021/08/15 01:15:06;;;;;;;10.40;6.47;;;16.00;99.90;;;;;;5103379;28;20204;-68
2021/08/15 01:17:35;;;;;;;12.43;6.77;;;16.00;99.90;;;;;;5101387;28;21528;-68
2021/08/15 01:20:04;;;;;;;13.00;7.70;;;16.00;99.90;;;;;;5112554;28;20477;-66
2021/08/15 01:22:36;;;;;;;11.63;7.37;;;16.00;99.90;;;;;;5126020;28;20181;-69
2021/08/15 01:25:06;;;;;;;14.33;7.33;;;16.00;99.90;;;;;;5123863;28;20267;-68
2021/08/15 01:27:38;;;;;;;13.47;6.83;;;16.00;99.90;;;;;;5105338;28;20228;-69
2021/08/15 01:30:10;;;;;;;11.07;6.73;;;16.00;99.90;;;;;;5127870;27;20178;-69
2021/08/15 01:32:39;;;;;;;11.33;7.17;;;16.00;99.90;;;;;;5125502;28;20302;-69
2021/08/15 01:35:08;;;;;;;9.17;6.70;;;16.00;99.90;;;;;;5135944;27;20204;-68
2021/08/15 01:37:36;;;;;;;7.83;6.50;;;16.00;99.90;;;;;;5110036;28;20190;-69
2021/08/15 01:40:06;;;;;;;17.33;6.47;;;15.90;99.90;;;;;;5126429;27;20323;-68
2021/08/15 01:42:35;;;;;;;12.10;6.50;;;15.90;99.90;;;;;;5122608;28;20183;-69
2021/08/15 01:45:09;;;;;;;8.50;6.70;;;15.90;99.90;;;;;;5128544;27;20285;-69
2021/08/15 01:47:38;;;;;;;11.87;6.33;;;15.90;99.90;;;;;;5123764;28;20182;-69
2021/08/15 01:50:07;;;;;;;8.77;6.63;;;15.80;99.90;;;;;;5128417;27;20175;-68
2021/08/15 01:52:35;;;;;;;8.30;6.50;;;15.80;99.90;;;;;;5126641;28;20185;-69
2021/08/15 01:55:04;;;;;;;12.30;6.93;;;15.70;99.90;;;;;;5109208;28;20202;-69
2021/08/15 01:57:33;;;;;;;11.93;6.93;;;15.70;99.90;;;;;;5126806;28;20361;-68
2021/08/15 02:00:01;;;;;;;11.50;6.70;;;15.60;99.90;;;;;;5128679;27;20175;-68
2021/08/15 02:02:31;;;;;;;13.70;6.33;;;15.60;99.90;;;;;;5123855;27;20394;-68
2021/08/15 02:04:59;;;;;;;9.60;6.50;;;15.50;99.90;;;;;;5127831;28;20175;-69
2021/08/15 02:07:27;;;;;;;9.67;6.13;;;15.50;99.90;;;;;;5122259;28;20301;-69
2021/08/15 02:09:55;;;;;;;8.67;6.10;;;15.40;99.90;;;;;;5121255;28;20452;-69
2021/08/15 02:12:27;;;;;;;11.73;6.23;;;15.40;99.90;;;;;;5126760;27;20179;-69
2021/08/15 02:15:07;;;;;;;6.47;5.87;;;15.40;99.90;;;;;;5126621;28;20436;-69
2021/08/15 02:17:36;;;;;;;7.97;6.00;;;15.30;99.90;;;;;;5119653;27;20210;-69
2021/08/15 02:20:06;;;;;;;13.47;6.57;;;15.30;99.90;;;;;;5124978;27;20249;-69
2021/08/15 02:22:35;;;;;;;10.70;6.70;;;15.20;99.90;;;;;;5103382;28;20186;-68
2021/08/15 02:25:04;;;;;;;12.63;7.23;;;15.30;99.90;;;;;;5125398;27;20212;-68
2021/08/15 02:27:32;;;;;;;8.07;6.50;;;15.30;99.90;;;;;;5125340;27;20451;-69
2021/08/15 02:30:00;;;;;;;7.27;6.00;;;15.20;99.90;;;;;;5126259;27;20187;-69
2021/08/15 02:32:29;;;;;;;9.93;6.63;;;15.20;99.90;;;;;;5123781;28;20394;-69
2021/08/15 02:34:58;;;;;;;11.43;6.97;;;15.30;99.90;;;;;;5118441;27;20314;-68
2021/08/15 02:37:27;;;;;;;11.07;6.90;;;15.20;99.90;;;;;;5105897;28;20194;-69
2021/08/15 02:39:58;;;;;;;7.87;6.70;;;15.20;99.90;;;;;;5124596;27;20186;-68
2021/08/15 02:42:28;;;;;;;10.93;7.00;;;15.20;99.90;;;;;;5124950;28;20191;-68
2021/08/15 02:44:56;;;;;;;17.17;6.83;;;15.20;99.90;;;;;;5121375;28;20381;-69
2021/08/15 02:47:24;;;;;;;9.23;6.67;;;15.20;99.90;;;;;;5121759;27;20189;-69
2021/08/15 02:49:52;;;;;;;13.30;6.43;;;15.20;99.90;;;;;;5123681;28;20272;-69
2021/08/15 02:52:22;;;;;;;8.03;6.03;;;15.20;99.90;;;;;;5122928;27;20187;-69
2021/08/15 02:54:50;;;;;;;8.80;6.13;;;15.10;99.90;;;;;;5124518;27;20199;-69
2021/08/15 02:57:19;;;;;;;10.63;6.33;;;15.00;99.90;;;;;;5127197;27;20178;-69
2021/08/15 02:59:47;;;;;;;9.60;5.87;;;15.00;99.90;;;;;;5124091;28;20170;-69
2021/08/15 03:02:18;;;;;;;11.80;6.97;;;15.00;99.90;;;;;;5121305;28;20183;-69
2021/08/15 03:04:47;;;;;;;13.17;6.17;;;15.00;99.90;;;;;;5122080;28;20179;-69
2021/08/15 03:07:16;;;;;;;8.97;6.43;;;15.00;99.90;;;;;;5107373;27;20178;-69
2021/08/15 03:09:47;;;;;;;11.17;6.30;;;14.90;99.90;;;;;;5122920;28;20179;-69
2021/08/15 03:12:15;;;;;;;9.30;6.27;;;14.90;99.90;;;;;;5118877;28;20398;-69
2021/08/15 03:14:43;;;;;;;10.37;6.50;;;14.90;99.90;;;;;;5125091;27;20254;-69
2021/08/15 03:17:13;;;;;;;8.40;6.30;;;14.90;99.90;;;;;;5124407;27;20186;-69
2021/08/15 03:19:41;;;;;;;11.20;6.57;;;14.90;99.90;;;;;;5122681;28;20294;-69
2021/08/15 03:22:10;;;;;;;11.87;6.43;;;14.80;99.90;;;;;;5124817;27;20292;-67
2021/08/15 03:24:38;;;;;;;9.27;6.50;;;14.80;99.90;;;;;;5125439;27;20180;-69
2021/08/15 03:27:08;;;;;;;11.83;6.50;;;14.70;99.90;;;;;;5125916;27;20182;-69
2021/08/15 03:29:36;;;;;;;11.80;7.00;;;14.70;99.90;;;;;;5122515;28;20266;-69
2021/08/15 03:32:05;;;;;;;8.60;6.60;;;14.70;99.90;;;;;;5124442;28;20178;-68
2021/08/15 03:34:33;;;;;;;8.47;5.70;;;14.70;99.90;;;;;;5121696;28;20167;-69
2021/08/15 03:37:01;;;;;;;8.60;5.93;;;14.70;99.90;;;;;;5123583;27;20215;-69
2021/08/15 03:39:30;;;;;;;9.53;6.23;;;14.70;99.90;;;;;;5123679;27;20195;-69
2021/08/15 03:41:59;;;;;;;10.27;6.57;;;14.60;99.90;;;;;;5105296;28;20179;-69
2021/08/15 03:44:30;;;;;;;9.57;6.50;;;14.60;99.90;;;;;;5123796;27;20178;-69
2021/08/15 03:46:59;;;;;;;9.03;6.50;;;14.60;99.90;;;;;;5121192;28;20595;-69
2021/08/15 03:49:28;;;;;;;8.57;6.13;;;14.60;99.90;;;;;;5104163;27;20354;-69
2021/08/15 03:51:57;;;;;;;9.47;6.23;;;14.60;99.90;;;;;;5127212;27;20175;-69
2021/08/15 03:54:26;;;;;;;8.93;6.53;;;14.60;99.90;;;;;;5117850;28;20289;-69
2021/08/15 03:56:55;;;;;;;9.00;6.70;;;14.60;99.90;;;;;;5122282;28;20464;-69
2021/08/15 03:59:23;;;;;;;11.70;6.40;;;14.60;99.90;;;;;;5119232;27;20404;-69
2021/08/15 04:01:52;;;;;;;10.03;6.03;;;14.50;99.90;;;;;;5125514;27;20198;-68
2021/08/15 04:04:21;;;;;;;11.30;6.40;;;14.50;99.90;;;;;;5122146;28;20228;-69
2021/08/15 04:06:53;;;;;;;8.80;6.53;;;14.50;99.90;;;;;;5124330;27;20195;-69
2021/08/15 04:09:21;;;;;;;9.77;6.37;;;14.50;99.90;;;;;;5120774;27;20187;-68
2021/08/15 04:11:49;;;;;;;6.13;5.57;;;14.40;99.90;;;;;;5120123;28;20175;-69
2021/08/15 04:14:17;;;;;;;9.90;5.70;;;14.40;99.90;;;;;;5121786;28;20187;-68
2021/08/15 04:16:46;;;;;;;9.37;6.20;;;14.30;99.90;;;;;;5104823;28;20187;-69
2021/08/15 04:19:16;;;;;;;8.60;5.77;;;14.30;99.90;;;;;;5127076;27;20185;-69
2021/08/15 04:21:44;;;;;;;6.47;5.83;;;14.30;99.90;;;;;;5125290;27;20226;-69
2021/08/15 04:24:12;;;;;;;8.47;6.10;;;14.30;99.90;;;;;;5120596;28;20405;-66
2021/08/15 04:26:43;;;;;;;8.97;6.63;;;14.30;99.90;;;;;;5123830;27;20300;-69
2021/08/15 04:29:13;;;;;;;10.07;6.47;;;14.30;99.90;;;;;;5122380;27;20393;-69
2021/08/15 04:31:41;;;;;;;11.87;6.70;;;14.30;99.90;;;;;;5122827;27;20430;-69
2021/08/15 04:34:10;;;;;;;10.43;7.00;;;14.30;99.90;;;;;;5121930;27;20178;-70
2021/08/15 04:36:39;;;;;;;9.23;6.47;;;14.30;99.90;;;;;;5125541;27;20206;-71
2021/08/15 04:39:07;;;;;;;6.83;5.83;;;14.30;99.90;;;;;;5117986;28;20232;-71
2021/08/15 04:41:36;;;;;;;7.87;6.07;;;14.20;99.90;;;;;;5120302;28;20266;-71
2021/08/15 04:44:04;;;;;;;11.40;6.50;;;14.30;99.90;;;;;;5123867;28;20175;-71
2021/08/15 04:46:32;;;;;;;9.37;6.70;;;14.30;99.90;;;;;;5103318;28;20182;-71
2021/08/15 04:49:01;;;;;;;9.73;7.03;;;14.30;99.90;;;;;;5124040;27;20203;-71
2021/08/15 04:51:29;;;;;;;13.77;6.67;;;14.40;99.90;;;;;;5121227;28;20393;-71
2021/08/15 04:53:59;;;;;;;14.27;7.30;;;14.40;99.90;;;;;;5122964;28;20405;-69
2021/08/15 04:56:27;;;;;;;10.17;8.03;;;14.40;99.90;;;;;;5120162;28;20455;-69
2021/08/15 04:58:55;;;;;;;13.83;6.63;;;14.40;99.90;;;;;;5121636;28;20212;-69
2021/08/15 05:01:24;;;;;;;12.10;6.73;;;14.50;99.90;;;;;;5123584;28;20202;-69
2021/08/15 05:03:52;;;;;;;8.97;6.83;;;14.50;99.90;;;;;;5120615;28;20382;-69
2021/08/15 05:06:21;;;;;;;12.57;6.90;;;14.50;99.90;;;;;;5102177;28;20167;-69
2021/08/15 05:08:49;;;;;;;11.77;7.23;;;14.60;99.90;;;;;;5101684;28;20385;-69
2021/08/15 05:11:19;;;;;;;12.77;7.00;;;14.70;99.90;;;;;;5123007;28;20190;-69
2021/08/15 05:13:47;;;;;;;11.10;6.93;;;14.70;99.90;;;;;;5123861;28;20193;-69
2021/08/15 05:16:15;;;;;;;11.73;7.27;;;14.80;99.90;;;;;;5110519;28;20195;-69
2021/08/15 05:18:44;;;;;;;11.37;7.50;;;14.90;99.90;;;;;;5120854;28;20254;-69
2021/08/15 05:21:12;;;;;;;12.47;7.13;;;15.00;99.90;;;;;;5121979;28;20384;-69
2021/08/15 05:23:40;;;;;;;12.43;7.23;;;15.00;99.90;;;;;;5104451;28;20179;-69
2021/08/15 05:26:08;;;;;;;11.70;7.30;;;15.10;99.90;;;;;;5121274;28;20399;-69
2021/08/15 05:28:38;;;;;;;10.23;6.60;;;15.10;99.90;;;;;;5120920;28;20186;-69
2021/08/15 05:31:06;;;;;;;11.07;7.43;;;15.10;99.90;;;;;;5121151;28;20373;-69
2021/08/15 05:33:35;;;;;;;14.70;8.57;;;15.10;99.90;;;;;;5120555;28;20190;-69
2021/08/15 05:36:04;;;;;;;9.60;7.80;;;15.20;99.90;;;;;;5103347;28;20214;-69
2021/08/15 05:38:32;;;;;;;11.90;7.27;;;15.30;99.90;;;;;;5124064;28;20178;-69
2021/08/15 05:41:01;;;;;;;14.33;7.70;;;15.40;99.90;;;;;;5117561;28;20209;-69
2021/08/15 05:43:29;;;;;;;13.97;7.50;;;15.60;99.90;;;;;;5102937;28;20195;-69
2021/08/15 05:45:58;;;;;;;11.97;7.50;;;15.60;99.90;;;;;;5122866;28;20412;-69
2021/08/15 05:48:27;;;;;;;14.90;7.70;;;15.60;99.90;;;;;;5119882;28;20320;-69
2021/08/15 05:50:55;;;;;;;13.73;7.93;;;15.70;99.90;;;;;;5125344;28;20175;-69
2021/08/15 05:53:23;;;;;;;13.97;8.00;;;15.70;99.90;;;;;;5119662;28;20219;-69
2021/08/15 05:55:52;;;;;;;16.10;8.43;;;15.80;99.90;;;;;;5127812;27;20179;-69
2021/08/15 05:58:20;;;;;;;12.20;8.00;;;15.90;99.90;;;;;;5121781;28;20433;-69
2021/08/15 06:00:49;;;;;;;11.77;8.30;;;15.90;99.90;;;;;;5125685;27;20179;-69
2021/08/15 06:03:19;;;;;;;11.00;7.80;;;16.00;99.90;;;;;;5129606;27;20368;-69
2021/08/15 06:05:47;;;;;;;12.63;7.93;;;16.10;99.90;;;;;;5126419;27;20174;-69
2021/08/15 06:08:16;;;;;;;11.57;7.60;;;16.30;99.90;;;;;;5124480;27;20170;-69
2021/08/15 06:10:44;;;;;;;11.40;7.80;;;16.50;99.90;;;;;;5121362;28;20198;-69
2021/08/15 06:13:15;;;;;;;13.67;8.30;;;16.60;99.90;;;;;;5125418;27;20179;-70
2021/08/15 06:15:43;;;;;;;12.40;7.97;;;16.70;99.90;;;;;;5104694;28;20235;-69
2021/08/15 06:18:13;;;;;;;12.77;7.40;;;16.80;99.90;;;;;;5124092;28;20204;-70
2021/08/15 06:20:42;;;;;;;9.47;7.50;;;17.00;99.90;;;;;;5102485;28;20275;-69
2021/08/15 06:23:11;;;;;;;12.40;7.60;;;17.20;99.90;;;;;;5124659;27;20300;-69
2021/08/15 06:25:39;;;;;;;12.43;8.17;;;17.40;99.90;;;;;;5121120;27;20420;-69
2021/08/15 06:28:07;;;;;;;12.90;8.43;;;17.40;99.90;;;;;;5123639;28;20410;-69
2021/08/15 06:30:36;;;;;;;13.47;8.33;;;17.50;99.90;;;;;;5122218;27;20396;-69
2021/08/15 06:33:05;;;;;;;13.97;8.47;;;17.60;99.90;;;;;;5122290;27;20421;-69
2021/08/15 06:35:33;;;;;;;15.60;8.33;;;17.60;99.90;;;;;;5122223;27;20222;-69
2021/08/15 06:38:04;;;;;;;12.37;8.17;;;17.70;99.90;;;;;;5120275;27;20460;-69
2021/08/15 06:40:32;;;;;;;12.93;8.30;;;17.70;99.90;;;;;;5121429;27;20274;-69
2021/08/15 06:43:07;;;;;;;10.60;8.03;;;17.70;99.90;;;;;;5123504;28;20396;-69
2021/08/15 06:45:35;;;;;;;12.70;8.90;;;17.70;99.90;;;;;;5123013;27;20281;-69
2021/08/15 06:48:04;;;;;;;12.20;8.50;;;17.70;99.90;;;;;;5123126;27;20183;-69
2021/08/15 06:50:33;;;;;;;16.03;9.00;;;17.70;99.90;;;;;;5124562;27;20181;-70
2021/08/15 06:53:03;;;;;;;13.00;8.93;;;17.90;99.90;;;;;;5124881;27;20411;-69
2021/08/15 06:55:31;;;;;;;15.07;8.83;;;18.00;99.90;;;;;;5123481;28;20226;-69
2021/08/15 06:57:59;;;;;;;12.43;9.43;;;18.00;99.90;;;;;;5090004;28;20240;-70
2021/08/15 07:00:28;;;;;;;12.13;9.10;;;18.10;99.90;;;;;;5120980;28;20317;-69
2021/08/15 07:02:56;;;;;;;14.70;9.30;;;18.40;99.90;;;;;;5121314;28;20174;-69
2021/08/15 07:05:25;;;;;;;14.87;9.60;;;18.60;99.90;;;;;;5120687;28;20422;-69
2021/08/15 07:07:54;;;;;;;13.17;8.30;;;18.80;99.90;;;;;;5107878;27;20360;-69
2021/08/15 07:10:24;;;;;;;15.93;8.83;;;19.10;99.90;;;;;;5105415;28;20192;-69
2021/08/15 07:12:58;;;;;;;15.57;8.10;;;19.30;99.90;;;;;;5120656;28;20251;-70
2021/08/15 07:15:29;;;;;;;13.43;8.00;;;19.40;99.90;;;;;;5120644;28;20178;-70
2021/08/15 07:17:58;;;;;;;16.27;7.30;;;19.50;99.90;;;;;;5104315;28;20277;-69
2021/08/15 07:20:27;;;;;;;9.90;6.80;;;19.40;99.90;;;;;;5102695;28;20215;-70
2021/08/15 07:22:56;;;;;;;9.93;6.10;;;19.40;99.90;;;;;;5104924;28;20203;-70
2021/08/15 07:25:28;;;;;;;11.50;6.63;;;19.30;99.90;;;;;;5110369;28;20179;-69
2021/08/15 07:27:57;;;;;;;9.10;5.80;;;19.10;99.90;;;;;;5102459;28;20168;-70
2021/08/15 07:30:26;;;;;;;7.77;5.77;;;19.30;99.90;;;;;;5106766;28;20175;-70
2021/08/15 07:32:55;;;;;;;10.77;6.10;;;19.40;99.90;;;;;;5106022;28;20197;-70
2021/08/15 07:35:25;;;;;;;10.37;5.77;;;19.50;99.90;;;;;;5104903;28;20256;-69
2021/08/15 07:37:53;;;;;;;6.90;5.23;;;19.60;99.90;;;;;;5101072;28;20195;-70
2021/08/15 07:40:23;;;;;;;8.50;5.57;;;19.70;99.90;;;;;;5101523;28;20180;-67
2021/08/15 07:42:54;;;;;;;11.70;5.90;;;19.90;99.90;;;;;;5118875;28;20187;-70
2021/08/15 07:45:25;;;;;;;10.37;6.10;;;20.10;99.90;;;;;;5101982;28;20183;-70
2021/08/15 07:47:54;;;;;;;14.03;6.00;;;20.50;99.90;;;;;;5103383;28;20178;-70
2021/08/15 07:50:25;;;;;;;8.77;5.23;;;20.40;99.90;;;;;;5103034;28;20218;-70
2021/08/15 07:52:53;;;;;;;12.37;5.27;;;20.20;99.90;;;;;;5103955;28;20182;-70
2021/08/15 07:55:23;;;;;;;7.97;5.37;;;20.20;99.90;;;;;;5098763;28;20187;-67
2021/08/15 07:57:52;;;;;;;7.90;4.87;;;20.30;99.90;;;;;;5102412;28;20210;-69
2021/08/15 08:00:21;;;;;;;8.90;5.77;;;20.40;99.90;;;;;;5098223;28;20632;-70
2021/08/15 08:02:49;;;;;;;12.90;6.07;;;20.60;99.90;;;;;;5103416;28;20191;-70
2021/08/15 08:05:18;;;;;;;8.70;5.17;;;20.60;99.90;;;;;;5084309;28;20244;-69
2021/08/15 08:07:47;;;;;;;11.93;5.53;;;20.70;99.90;;;;;;5099389;28;20183;-70
2021/08/15 08:10:15;;;;;;;10.67;5.43;;;21.10;99.90;;;;;;5098442;28;20180;-70
2021/08/15 08:12:45;;;;;;;12.07;5.70;;;21.30;99.90;;;;;;5103962;28;20183;-70
2021/08/15 08:15:19;;;;;;;9.27;5.57;;;21.40;99.90;;;;;;5097790;28;20225;-70
2021/08/15 08:17:47;;;;;;;13.93;5.50;;;21.50;99.90;;;;;;5101493;28;20208;-70
2021/08/15 08:20:17;;;;;;;8.03;5.13;;;21.60;99.90;;;;;;5107692;28;20220;-70
2021/08/15 08:22:46;;;;;;;9.90;4.97;;;21.60;99.90;;;;;;5118103;27;20390;-70
2021/08/15 08:25:17;;;;;;;9.77;5.57;;;21.70;99.90;;;;;;5112052;28;20428;-70
2021/08/15 08:27:45;;;;;;;9.93;4.87;;;21.70;99.90;;;;;;5116372;28;20244;-70
2021/08/15 08:30:14;;;;;;;13.57;5.20;;;21.90;99.90;;;;;;5117858;27;20198;-69
2021/08/15 08:32:44;;;;;;;10.63;5.20;;;22.00;99.90;;;;;;5116349;28;20299;-70
2021/08/15 08:35:12;;;;;;;11.13;5.10;;;22.50;99.90;;;;;;5122348;27;20206;-70
2021/08/15 08:37:41;;;;;;;8.23;4.80;;;22.90;99.90;;;;;;5116197;28;20196;-70
2021/08/15 08:40:11;;;;;;;7.40;4.77;;;23.10;99.90;;;;;;5116049;28;20203;-70
2021/08/15 08:42:39;;;;;;;8.77;4.27;;;23.00;99.90;;;;;;5111602;28;20190;-68
2021/08/15 08:45:08;;;;;;;11.23;4.70;;;23.00;99.90;;;;;;5118216;28;20468;-70
2021/08/15 08:47:37;;;;;;;7.03;4.17;;;23.20;99.90;;;;;;5115269;28;20286;-70
2021/08/15 08:50:07;;;;;;;6.27;4.43;;;23.50;99.90;;;;;;5117786;28;20231;-70
2021/08/15 08:52:35;;;;;;;9.03;5.10;;;23.80;99.90;;;;;;5096374;28;20194;-70
2021/08/15 08:55:05;;;;;;;13.03;3.97;;;23.80;99.90;;;;;;5117654;28;20228;-71
2021/08/15 08:57:34;;;;;;;7.80;4.30;;;23.90;99.90;;;;;;5116420;28;20178;-70
2021/08/15 09:00:03;;;;;;;4.97;3.80;;;24.30;99.90;;;;;;5115698;28;20325;-70
2021/08/15 09:02:31;;;;;;;4.77;3.97;;;24.40;99.90;;;;;;5117057;28;20220;-70
2021/08/15 09:05:01;;;;;;;3.83;3.47;;;24.60;99.90;;;;;;5117936;28;20281;-70
2021/08/15 09:07:35;;;;;;;6.30;4.00;;;24.80;99.90;;;;;;5111429;28;20392;-71
2021/08/15 09:10:06;;;;;;;5.90;3.70;;;24.60;99.90;;;;;;5114096;28;20241;-70
2021/08/15 09:12:36;;;;;;;6.50;4.00;;;24.40;99.90;;;;;;5116443;28;20181;-70
2021/08/15 09:15:11;;;;;;;4.57;3.90;;;24.10;99.90;;;;;;5098670;28;20179;-70
2021/08/15 09:17:40;;;;;;;5.07;4.37;;;24.30;99.90;;;;;;5116957;28;20190;-69
2021/08/15 09:20:11;;;;;;;5.97;3.73;;;24.70;99.90;;;;;;5119579;28;20371;-71
2021/08/15 09:22:41;;;;;;;8.40;4.00;;;25.10;99.90;;;;;;5121646;28;20301;-71
2021/08/15 09:25:12;;;;;;;6.97;4.40;;;25.50;99.90;;;;;;5119959;28;20180;-70
2021/08/15 09:27:45;;;;;;;5.65;4.30;;;25.80;99.90;;;;;;5101048;28;20190;-70
2021/08/15 09:30:19;;;;;;;4.78;3.85;;;26.00;99.90;;;;;;5121720;27;20170;-70
2021/08/15 09:32:57;;;;;;;4.82;4.00;;;26.30;99.90;;;;;;5124228;28;20351;-70
2021/08/15 09:35:28;;;;;;;5.15;4.32;;;26.90;99.90;;;;;;5125772;27;20243;-70
2021/08/15 09:38:07;;;;;;;6.45;4.20;;;27.30;99.90;;;;;;5123445;28;20207;-69
2021/08/15 09:40:36;;;;;;;6.35;3.60;;;27.80;99.90;;;;;;5122596;28;20191;-70
2021/08/15 09:43:07;;;;;;;5.20;3.75;;;27.80;99.90;;;;;;5103239;28;20224;-70
2021/08/15 09:45:41;;;;;;;5.53;3.90;;;27.50;99.90;;;;;;5120200;28;20194;-70
2021/08/15 09:48:35;;;;;;;5.05;3.92;;;27.80;99.90;;;;;;5122903;28;20187;-70
2021/08/15 09:51:17;;;;;;;9.98;3.78;;;28.20;99.90;;;;;;5121295;28;20227;-70
2021/08/15 09:54:00;;;;;;;3.95;3.58;;;28.10;99.90;;;;;;5100274;28;20176;-71
2021/08/15 09:56:32;;;;;;;4.45;3.80;;;28.20;99.90;;;;;;5118400;28;20196;-67
2021/08/15 09:59:12;;;;;;;9.85;4.25;;;28.50;99.90;;;;;;5119293;28;20342;-70
2021/08/15 10:01:42;;;;;;;8.57;4.25;;;28.80;99.90;;;;;;5118250;28;20190;-70
2021/08/15 10:04:11;;;;;;;5.38;4.00;;;29.30;99.90;;;;;;5120031;27;20216;-69
2021/08/15 10:06:42;;;;;;;5.30;3.63;;;29.70;99.90;;;;;;5118978;27;20213;-70
2021/08/15 10:09:12;;;;;;;9.15;3.85;;;29.80;99.90;;;;;;5119628;28;20185;-70
2021/08/15 10:11:42;;;;;;;6.05;3.95;;;29.80;99.90;;;;;;5118424;28;20224;-70
2021/08/15 10:14:12;;;;;;;5.07;3.47;;;29.50;99.90;;;;;;5118840;28;20262;-70
2021/08/15 10:16:44;;;;;;;5.05;4.15;;;29.50;99.90;;;;;;5118374;28;20197;-70
2021/08/15 10:19:17;;;;;;;8.60;3.83;;;29.30;99.90;;;;;;5118898;28;20195;-71
2021/08/15 10:21:48;;;;;;;9.05;3.90;;;29.40;99.90;;;;;;5120527;27;20227;-70
2021/08/15 10:24:18;;;;;;;7.57;4.20;;;29.60;99.90;;;;;;5119393;27;20199;-70
2021/08/15 10:26:48;;;;;;;6.90;4.00;;;29.50;99.90;;;;;;5119359;28;20271;-70
2021/08/15 10:29:43;;;;;;;5.18;3.53;;;29.40;99.90;;;;;;5121696;28;20526;-70
2021/08/15 10:32:19;;;;;;;6.88;3.60;;;29.70;99.90;;;;;;5121034;27;20428;-70
2021/08/15 10:35:18;;;;;;;6.45;3.67;;;29.60;99.90;;;;;;5120941;28;20455;-70
2021/08/15 10:37:52;;;;;;;4.85;3.55;;;30.00;99.90;;;;;;5099729;28;20204;-70
2021/08/15 10:40:58;;;;;;;3.80;3.50;;;30.10;99.90;;;;;;5121094;27;20208;-71
2021/08/15 10:44:09;;;;;;;8.43;3.60;;;30.10;99.90;;;;;;5121339;28;20189;-70
2021/08/15 10:47:13;;;;;;;6.32;3.35;;;30.70;99.90;;;;;;5119769;27;20182;-71
2021/08/15 10:49:51;;;;;;;7.13;3.83;;;30.40;99.90;;;;;;5121841;28;20179;-70
2021/08/15 10:52:28;;;;;;;6.60;3.75;;;29.90;99.90;;;;;;5122257;28;20171;-69
2021/08/15 10:55:00;;;;;;;8.13;3.50;;;30.10;99.90;;;;;;5123612;28;20195;-69
2021/08/15 10:57:36;;;;;;;8.15;3.15;;;30.00;99.90;;;;;;5124639;28;20186;-69
2021/08/15 11:00:55;;;;;;;5.53;3.45;;;30.20;99.90;;;;;;5120063;28;20327;-68
2021/08/15 11:04:00;;;;;;;5.78;3.38;;;30.00;99.90;;;;;;5122124;28;20238;-70
2021/08/15 11:06:47;;;;;;;4.50;3.72;;;30.20;99.90;;;;;;5119922;28;20276;-69
2021/08/15 11:09:16;;;;;;;5.40;3.47;;;30.20;99.90;;;;;;5119857;28;20184;-70
2021/08/15 11:12:13;;;;;;;6.07;4.20;;;30.20;99.90;;;;;;5106357;28;20181;-70
2021/08/15 11:15:00;;;;;;;6.63;3.95;;;30.40;99.90;;;;;;5121201;28;20219;-69
2021/08/15 11:17:30;;;;;;;4.13;3.60;;;30.90;99.90;;;;;;5122378;27;20418;-71
2021/08/15 11:20:33;;;;;;;5.78;3.60;;;30.90;99.90;;;;;;5119011;28;20199;-70
2021/08/15 11:23:14;;;;;;;7.30;3.83;;;31.10;99.90;;;;;;5118471;28;20189;-71
2021/08/15 11:25:43;;;;;;;7.20;3.70;;;30.80;99.90;;;;;;5119154;28;20186;-71
2021/08/15 11:28:13;;;;;;;4.60;3.47;;;30.40;99.90;;;;;;5120189;28;20175;-70
2021/08/15 11:30:44;;;;;;;5.13;3.78;;;30.00;99.90;;;;;;5122622;27;20190;-70
2021/08/15 11:33:12;;;;;;;3.55;3.35;;;30.30;99.90;;;;;;5120372;28;20197;-72
2021/08/15 11:35:44;;;;;;;5.95;3.20;;;30.10;99.90;;;;;;5114293;27;20198;-71
2021/08/15 11:38:15;;;;;;;6.10;3.70;;;29.90;99.90;;;;;;5122964;28;20404;-71
2021/08/15 11:40:48;;;;;;;4.85;3.10;;;29.80;99.90;;;;;;5130652;27;20209;-72
2021/08/15 11:43:18;;;;;;;6.07;3.50;;;29.80;99.90;;;;;;5123976;28;20187;-71
2021/08/15 11:45:48;;;;;;;8.25;3.67;;;29.90;99.90;;;;;;5122580;28;20184;-71
2021/08/15 11:48:18;;;;;;;3.78;3.17;;;30.00;99.90;;;;;;5123951;28;20190;-70
2021/08/15 11:50:51;;;;;;;4.53;3.17;;;30.00;99.90;;;;;;5121520;28;20194;-70
2021/08/15 11:53:23;;;;;;;3.92;3.63;;;30.00;99.90;;;;;;5126638;27;20185;-72
2021/08/15 11:55:53;;;;;;;4.15;3.65;;;29.80;99.90;;;;;;5122426;27;20181;-73
2021/08/15 11:58:21;;;;;;;7.63;3.40;;;29.80;99.90;;;;;;5122559;28;20188;-71
2021/08/15 12:00:51;;;;;;;3.88;3.58;;;29.60;99.90;;;;;;5124550;27;20205;-71
2021/08/15 12:03:20;;;;;;;4.85;3.42;;;29.40;99.90;;;;;;5107664;28;20252;-70
2021/08/15 12:05:52;;;;;;;8.77;4.10;;;29.50;99.90;;;;;;5084222;28;20251;-70
2021/08/15 12:08:23;;;;;;;7.30;3.60;;;29.60;99.90;;;;;;5117015;28;20176;-70
2021/08/15 12:10:52;;;;;;;4.05;3.65;;;29.60;99.90;;;;;;5121564;27;20199;-70
2021/08/15 12:13:24;;;;;;;5.50;3.40;;;29.70;99.90;;;;;;5102805;28;20230;-70
2021/08/15 12:15:55;;;;;;;5.93;3.58;;;29.90;99.90;;;;;;5121084;28;20222;-71
2021/08/15 12:18:32;;;;;;;6.22;3.53;;;29.60;99.90;;;;;;5119152;28;20180;-69
2021/08/15 12:21:02;;;;;;;4.75;3.67;;;29.50;99.90;;;;;;5119550;28;20206;-70
2021/08/15 12:23:33;;;;;;;4.68;3.42;;;29.60;99.90;;;;;;5100645;28;20190;-70
2021/08/15 12:26:07;;;;;;;3.60;3.30;;;29.80;99.90;;;;;;5117291;28;20396;-70
2021/08/15 12:28:37;;;;;;;5.50;3.80;;;29.60;99.90;;;;;;5116162;28;20289;-69
2021/08/15 12:31:23;;;;;;;4.78;3.38;;;29.50;99.90;;;;;;5117393;28;20180;-70
2021/08/15 12:34:04;;;;;;;4.25;3.50;;;29.60;99.90;;;;;;5121817;28;20388;-70
2021/08/15 12:36:42;;;;;;;4.07;3.25;;;29.60;99.90;;;;;;5118929;28;20255;-69
2021/08/15 12:39:11;;;;;;;11.88;4.00;;;29.60;99.90;;;;;;5123093;28;20209;-70
2021/08/15 12:41:54;;;;;;;8.98;3.78;;;29.50;99.90;;;;;;5120440;27;20193;-71
2021/08/15 12:44:25;;;;;;;15.57;3.30;;;29.30;99.90;;;;;;5119455;28;20174;-69
2021/08/15 12:47:05;;;;;;;3.80;3.55;;;29.30;99.90;;;;;;5115618;28;20398;-69
2021/08/15 12:49:38;;;;;;;5.03;3.55;;;29.10;99.90;;;;;;5121918;28;20225;-69
2021/08/15 12:52:16;;;;;;;4.53;3.80;;;29.20;99.90;;;;;;5098325;28;20208;-69
2021/08/15 12:55:16;;;;;;;4.50;3.40;;;29.10;99.90;;;;;;5121901;28;20174;-69
2021/08/15 12:57:46;;;;;;;4.55;3.55;;;29.00;99.90;;;;;;5127473;28;20184;-69
2021/08/15 13:00:19;;;;;;;5.10;3.40;;;29.10;99.90;;;;;;5122663;28;20199;-69
2021/08/15 13:02:49;;;;;;;7.20;4.10;;;29.20;99.90;;;;;;5124985;28;20331;-69